INFORMACIÓN METAR y TAF
METAR FOR ESNZ
ADDS - METARS form results

(0742 UTC 15 April 2021)
Data provider http://aviationweather.gov/metar/data/
 
METAR text: ESNZ 150720Z 25006KT CAVOK 00/M05 Q1032
Conditions at: ESNZ (OSTERSUND/FROSON, SE) observed 0720 UTC 15 April 2021
Temperature: 0.0°C (32°F)
Dewpoint: -5.0°C (23°F) [RH = 69%]
Pressure (altimeter): 30.47 inches Hg (1032.0 mb)
Winds: from the WSW (250 degrees) at 7 MPH (6 knots; 3.1 m/s)
Visibility: 6 or more miles (10+ km)
Ceiling: ceiling and visibility are OK
Clouds: unknown
Weather: no significant weather observed at this time

METAR text: ESNZ 150650Z 21006KT CAVOK M01/M05 Q1032
Conditions at: ESNZ (OSTERSUND/FROSON, SE) observed 0650 UTC 15 April 2021
Temperature: -1.0°C (30°F)
Dewpoint: -5.0°C (23°F) [RH = 74%]
Pressure (altimeter): 30.47 inches Hg (1032.0 mb)
Winds: from the SSW (210 degrees) at 7 MPH (6 knots; 3.1 m/s)
Visibility: 6 or more miles (10+ km)
Ceiling: ceiling and visibility are OK
Clouds: unknown
Weather: no significant weather observed at this time

Forecast for: ESNZ (OSTERSUND/FROSON, SE)
Text: TAF ESNZ 150530Z 1506/1510 26008KT 9999 SCT030
Forecast period: 0600 to 1000 UTC 15 April 2021
Forecast type: FROM: standard forecast or significant change
Winds: from the W (260 degrees) at 9 MPH (8 knots; 4.1 m/s)
Visibility: 6 or more miles (10+ km)
Ceiling: at least 12,000 feet AGL
Clouds: scattered clouds at 3000 feet AGL
Weather: no significant weather forecast for this period

 MAPA DE AEROPUERTO

 INFORMACIÓN DE PISTA
Pista 12 Longitud 8202 ft Ancho 148 ft
Elevación 1194 ft Umbral desplazado 0 ft Rumbo de pista 115
Pista 30 Longitud 8202 ft Ancho 148 ft
Elevación 1233 ft Umbral desplazado 0 ft Rumbo de pista 295
Pista 12L Longitud 4034 ft Ancho 54 ft
Elevación 0 ft Umbral desplazado 0 ft Rumbo de pista 122
Pista 30R Longitud 4034 ft Ancho 54 ft
Elevación 0 ft Umbral desplazado 0 ft Rumbo de pista 302

 FRECUANCIAS DEL AEROPUERTO

 RADIO AYUDAS DEL AEROPUERTO



Powered by Virtual Airlines Manager [v2.6.2]